Home > Products > Valid Products > TAF

000
FTUS42 KILM 281200 AAB
TAFLBT
TAF AMD
KLBT 281256Z 2813/2912 23007KT P6SM FEW050 SCT150
     FM281600 27011G15KT P6SM SCT050 SCT200
     FM281800 28012G20KT P6SM VCTS SCT040CB BKN200
      TEMPO 2818/2822 VRB20G40KT 1SM TSRA BKN030CB
     FM290100 31008KT P6SM BKN050 BKN250
     FM290600 02005KT P6SM SCT050=



000
FTUS42 KILM 281200 AAA
TAFLBT
TAF AMD
KLBT 281225Z 2812/2912 23007KT P6SM FEW050 SCT150
      TEMPO 2812/2813 VRB10G20KT 3SM -TSRA BKN040CB
     FM281600 27011G15KT P6SM SCT050 SCT200
     FM281800 28012G20KT P6SM VCTS SCT040CB BKN200
      TEMPO 2818/2822 VRB20G40KT 1SM TSRA BKN030CB
     FM290100 31008KT P6SM BKN050 BKN250
     FM290600 02005KT P6SM SCT050=



000
FTUS42 KILM 281100
TAFILM
TAF
KILM 281124Z 2812/2912 23010KT P6SM SCT200
     FM281330 25011G18KT P6SM FEW040 SCT200
     FM281800 24014G20KT P6SM VCTS SCT040CB BKN200
      TEMPO 2820/2824 VRB20G40KT 1SM +TSRA BKN025CB
     FM290200 26010KT P6SM BKN050 BKN250
     FM290800 32006KT P6SM SCT050=



000
FTUS42 KILM 281100
TAFMYR
TAF
KMYR 281124Z 2812/2912 25010KT P6SM SCT200
     FM281330 25012G18KT P6SM FEW040 SCT200
     FM281800 23014G20KT P6SM VCTS SCT040CB BKN200
      TEMPO 2820/2824 VRB20G40KT 1SM +TSRA BKN030CB
     FM290200 26008KT P6SM BKN045 BKN250
     FM290800 35006KT P6SM SCT050=



000
FTUS42 KILM 281100
TAFFLO
TAF
KFLO 281124Z 2812/2912 24010KT P6SM FEW070 SCT150
     FM281600 27011G18KT P6SM SCT050 SCT200
     FM281800 28012G20KT P6SM VCTS SCT040CB BKN200
      TEMPO 2818/2822 VRB20G40KT 1SM TSRA BKN030CB
     FM290100 31008KT P6SM BKN050 BKN250
     FM290600 01007KT P6SM SCT050=



000
FTUS42 KILM 281100
TAFCRE
TAF
KCRE 281124Z 2812/2912 23010KT P6SM SCT200
     FM281330 24011G16KT P6SM FEW040 SCT200
     FM281800 23014G20KT P6SM VCTS SCT040CB BKN200
      TEMPO 2820/2824 VRB20G40KT 1SM +TSRA BKN030CB
     FM290200 26008KT P6SM BKN050 BKN250
     FM290800 01005KT P6SM SCT050=



000
FTUS42 KILM 281100
TAFLBT
TAF
KLBT 281124Z 2812/2912 23007KT P6SM FEW050 SCT150
     FM281600 27011G15KT P6SM SCT050 SCT200
     FM281800 28012G20KT P6SM VCTS SCT040CB BKN200
      TEMPO 2818/2822 VRB20G40KT 1SM TSRA BKN030CB
     FM290100 31008KT P6SM BKN050 BKN250
     FM290600 02005KT P6SM SCT050=



000
FTUS42 KILM 280500 CCA
TAFLBT
TAF COR
KLBT 280545Z 2806/2906 24009KT P6SM VCSH BKN060 OVC150
     FM281300 27011G15KT P6SM SCT050 BKN200
     FM281800 28012G18KT P6SM VCTS SCT040CB BKN200
      TEMPO 2818/2822 VRB20G40KT 1SM TSRA BKN030CB
     FM290100 31008KT P6SM BKN050 OVC250=



000
FTUS42 KILM 280500 CCA
TAFFLO
TAF COR
KFLO 280543Z 2806/2906 24010KT P6SM BKN080 OVC150
     FM281300 27011G15KT P6SM SCT050 BKN200
     FM281800 28012G18KT P6SM VCTS SCT040CB BKN200
      TEMPO 2818/2822 VRB20G40KT 1SM TSRA BKN030CB
     FM290100 31008KT P6SM BKN060 OVC250=



000
FTUS42 KILM 280500
TAFFLO
TAF
KFLO 280539Z 2806/2906 22010KT P6SM BKN150
     FM280800 24009KT P6SM FEW040 SCT150
     FM281500 27011KT P6SM SCT050 SCT150
     FM281800 27012G18KT P6SM VCTS SCT040CB BKN200
     FM290200 32010KT P6SM SCT250=



000
FTUS42 KILM 280500
TAFMYR
TAF
KMYR 280539Z 2806/2906 23010KT P6SM BKN200
     FM281300 25012G17KT P6SM SCT040 BKN200
     FM281900 23014G19KT P6SM VCTS SCT040CB BKN200
      TEMPO 2820/2824 VRB20G40KT 1SM +TSRA BKN030CB
     FM290200 26008KT P6SM BKN045 BKN250
      AMD LTD TO CLD VIS AND WIND TIL 281100=



000
FTUS42 KILM 280500
TAFLBT
TAF
KLBT 280539Z 2806/2906 22009KT P6SM VCSH SCT040 BKN150
     FM280900 24005KT 5SM BR FEW040 SCT150
     FM281500 28011KT P6SM SCT050 SCT150
     FM281700 27012G18KT P6SM VCTS SCT040CB BKN200
     FM290100 32010KT P6SM SCT250=



000
FTUS42 KILM 280500
TAFCRE
TAF
KCRE 280539Z 2806/2906 23010KT P6SM BKN200
     FM281300 24011G16KT P6SM SCT040 BKN200
     FM281800 23014G18KT P6SM VCTS SCT040CB BKN200
      TEMPO 2820/2824 VRB20G40KT 1SM +TSRA BKN030CB
     FM290200 26008KT P6SM BKN045 BKN250=



000
FTUS42 KILM 280500
TAFILM
TAF
KILM 280539Z 2806/2906 23010KT P6SM SCT070 BKN150
     FM281300 25012G17KT P6SM SCT050 BKN200
     FM281800 24014G19KT P6SM VCTS SCT040CB BKN200
      TEMPO 2820/2824 VRB20G40KT 1SM +TSRA BKN025CB
     FM290200 26010KT P6SM BKN050 BKN250=



000
FTUS42 KILM 272300
TAFLBT
TAF
KLBT 272320Z 2800/2824 22009KT P6SM SCT120
     FM280900 24005KT 5SM BR FEW040 SCT150
     FM281500 28011KT P6SM SCT050 SCT150
     FM281700 27012G18KT P6SM VCTS SCT040CB BKN200
      TEMPO 2818/2821 27015KT 2SM +TSRA BKN030CB=



000
FTUS42 KILM 272300
TAFCRE
TAF
KCRE 272320Z 2800/2824 21014KT P6SM SCT200
     FM280200 23010KT P6SM SCT150
     FM281400 27011KT P6SM FEW040 SCT150
     FM281900 25012G18KT P6SM VCTS SCT040CB BKN200
      TEMPO 2820/2824 26020G30KT 1SM +TSRA BKN030CB=



000
FTUS42 KILM 272300
TAFILM
TAF
KILM 272320Z 2800/2824 21012KT P6SM SCT200
     FM280400 22010KT P6SM SCT150
     FM281400 25012KT P6SM FEW040 SCT150
     FM281900 25012G18KT P6SM VCTS SCT040CB BKN200
      TEMPO 2820/2824 26020G30KT 1SM +TSRA BKN030CB=



000
FTUS42 KILM 272300
TAFFLO
TAF
KFLO 272320Z 2800/2824 22010KT P6SM SCT120
     FM280800 24009KT P6SM FEW040 SCT150
     FM281500 27011KT P6SM SCT050 SCT150
     FM281800 27012G18KT P6SM VCTS SCT040CB BKN200
      TEMPO 2819/2823 27020G30KT 1SM +TSRA BKN030CB=



000
FTUS42 KILM 272300
TAFMYR
TAF
KMYR 272320Z 2800/2824 21015KT P6SM SCT200
     FM280200 23010KT P6SM SCT150
     FM281400 25012KT P6SM FEW040 SCT150
     FM281900 25012G18KT P6SM VCTS SCT040CB BKN200
      TEMPO 2820/2824 26020G30KT 1SM +TSRA BKN030CB
      AMD LTD TO CLD VIS AND WIND 2804/2811=



000
FTUS42 KILM 271700
TAFLBT
TAF
KLBT 271721Z 2718/2818 23012KT P6SM VCTS SCT045CB BKN100
     FM272300 22009KT P6SM SCT120
     FM280900 24005KT 5SM BR FEW040 SCT150
     FM281500 28011KT P6SM SCT050 SCT150=



000
FTUS42 KILM 271700
TAFCRE
TAF
KCRE 271721Z 2718/2818 26011KT P6SM SCT120
     FM271900 22014G19KT P6SM VCSH FEW040 SCT120
     FM280000 21014KT P6SM SCT200
     FM280200 23010KT P6SM SCT150
     FM281400 27011KT P6SM FEW040 SCT150=



000
FTUS42 KILM 271700
TAFFLO
TAF
KFLO 271721Z 2718/2818 23009KT P6SM VCSH FEW040 SCT100
     FM272300 22010KT P6SM SCT120
     FM280800 24009KT P6SM FEW040 SCT150
     FM281500 27011KT P6SM SCT050 SCT150=



000
FTUS42 KILM 271700
TAFMYR
TAF
KMYR 271721Z 2718/2818 27011KT P6SM SCT120
     FM271900 20014G20KT P6SM VCSH FEW040 SCT120
     FM272300 21015KT P6SM SCT200
     FM280200 23010KT P6SM SCT150
     FM281400 25012KT P6SM FEW040 SCT150=



000
FTUS42 KILM 271700
TAFILM
TAF
KILM 271721Z 2718/2818 21010KT P6SM SCT120
     FM271900 21012G17KT P6SM VCSH FEW040 SCT120
     FM280000 21012KT P6SM SCT200
     FM280400 22010KT P6SM SCT150
     FM281400 25012KT P6SM FEW040 SCT150=



000
FTUS42 KILM 271500 AAB
TAFLBT
TAF AMD
KLBT 271517Z 2715/2812 24007KT P6SM VCSH SCT120 SCT200
      TEMPO 2715/2716 30015KT 3SM RA BKN050
     FM271800 23012KT P6SM VCTS SCT045CB BKN100
     FM272300 22009KT P6SM SCT120
     FM280600 24005KT 4SM BR FEW040 SCT150=



000
FTUS42 KILM 271400 AAA
TAFFLO
TAF AMD
KFLO 271430Z 2715/2812 24010KT P6SM VCTS SCT050CB SCT120 SCT200
     FM271800 23013KT P6SM VCTS SCT045CB BKN100
     FM272300 22010KT P6SM SCT120
     FM280800 24009KT 6SM BR FEW040 SCT150=



000
FTUS42 KILM 271200 AAA
TAFLBT
TAF AMD
KLBT 271244Z 2713/2812 22003KT 4SM BR SCT120
     FM271300 24007KT P6SM VCSH SCT120 SCT200
     FM271800 23012KT P6SM VCTS SCT045CB BKN100
     FM272300 22009KT P6SM SCT120
     FM280600 24005KT 4SM BR FEW040 SCT150=



000
FTUS42 KILM 271200 AAA
TAFCRE
TAF AMD
KCRE 271203Z 2712/2812 23008KT P6SM SCT120 SCT200
     FM271800 20014G19KT P6SM VCTS FEW040CB SCT100 SCT250
     FM272300 21014KT P6SM SCT200
     FM280200 23010KT P6SM SCT150=



000
FTUS42 KILM 271200 AAA
TAFILM
TAF AMD
KILM 271202Z 2712/2812 24005KT 6SM BR SCT120
     FM271330 24009KT P6SM SCT120 SCT200
     FM271900 21012G17KT P6SM VCTS FEW040CB SCT100 SCT200
     FM272300 21012KT P6SM SCT200
     FM280400 22011KT P6SM SCT150=



000
FTUS42 KILM 271100
TAFFLO
TAF
KFLO 271136Z 2712/2812 22003KT 6SM BR SCT120
     FM271300 24010KT P6SM SCT120 SCT200
     FM271800 23013KT P6SM VCTS SCT045CB BKN100
     FM272300 22010KT P6SM SCT120
     FM280800 24009KT 6SM BR FEW040 SCT150=



000
FTUS42 KILM 271100
TAFLBT
TAF
KLBT 271136Z 2712/2812 22003KT 3SM BR SCT120
     FM271300 24007KT P6SM SCT120 SCT200
     FM271800 23012KT P6SM VCTS SCT045CB BKN100
     FM272300 22009KT P6SM SCT120
     FM280600 24005KT 4SM BR FEW040 SCT150=



000
FTUS42 KILM 271100
TAFCRE
TAF
KCRE 271136Z 2712/2812 24005KT 5SM BR SCT120
     FM271330 23010KT P6SM SCT120 SCT200
     FM271800 20014G19KT P6SM VCTS FEW040CB SCT100 SCT250
     FM272300 21014KT P6SM SCT200
     FM280200 23010KT P6SM SCT150=



000
FTUS42 KILM 271100
TAFILM
TAF
KILM 271136Z 2712/2812 24005KT 4SM BR SCT120
     FM271330 24009KT P6SM SCT120 SCT200
     FM271900 21012G17KT P6SM VCTS FEW040CB SCT100 SCT200
     FM272300 21012KT P6SM SCT200
     FM280400 22011KT P6SM SCT150=



000
FTUS42 KILM 271100
TAFMYR
TAF
KMYR 271136Z 2712/2812 24005KT 3SM BR SCT120
     FM271330 24010KT P6SM SCT120 SCT200
     FM271800 20014G20KT P6SM VCTS FEW040CB SCT100 SCT250
     FM272300 21015KT P6SM SCT200
     FM280200 23010KT P6SM SCT150=



000
FTUS42 KILM 270500
TAFILM
TAF
KILM 270520Z 2706/2806 24005KT 5SM BR BKN250
     FM271230 24009KT P6SM BKN120 OVC250
     FM271900 21012G17KT P6SM VCTS FEW040CB BKN100 OVC250
     FM272300 22012KT P6SM BKN250=



000
FTUS42 KILM 270500
TAFFLO
TAF
KFLO 270520Z 2706/2806 23003KT 4SM BR BKN250
     FM271300 24010KT P6SM SCT120 BKN250
     FM271800 23013KT P6SM VCTS SCT045CB BKN100
     FM272300 22010KT P6SM BKN150=



000
FTUS42 KILM 270500
TAFCRE
TAF
KCRE 270520Z 2706/2806 24005KT 5SM BR BKN250
     FM271230 23010KT P6SM BKN150 OVC250
     FM271800 20014G19KT P6SM VCTS FEW035CB BKN120 OVC250
     FM272300 21014KT P6SM BKN250=



000
FTUS42 KILM 270500
TAFMYR
TAF
KMYR 270520Z 2706/2806 24005KT P6SM BKN250
     FM271230 24010KT P6SM BKN150 OVC250
     FM271800 20014G20KT P6SM VCTS FEW035CB BKN120 OVC250
     FM272300 21015KT P6SM BKN250
      AMD LTD TO CLD VIS AND WIND TIL 271100=



000
FTUS42 KILM 270500
TAFLBT
TAF
KLBT 270520Z 2706/2806 22003KT 4SM BR BKN250
     FM271300 24007KT P6SM SCT120 BKN250
     FM271800 23012KT P6SM VCTS SCT045CB BKN100
     FM272300 22009KT P6SM BKN150=



000
FTUS42 KILM 262300
TAFILM
TAF
KILM 262320Z 2700/2724 17011KT P6SM SCT040 SCT250
     FM270100 22005KT P6SM FEW050
     FM271600 21013KT P6SM SCT030 SCT090 BKN250
     FM271900 22013KT P6SM VCTS SCT040CB BKN250=



000
FTUS42 KILM 262300
TAFFLO
TAF
KFLO 262320Z 2700/2724 22003KT P6SM FEW050 SCT250
      TEMPO 2708/2711 4SM BR SCT005
     FM271500 23010KT P6SM SCT030 SCT090 BKN250=



000
FTUS42 KILM 262300
TAFMYR
TAF
KMYR 262320Z 2700/2724 21012KT P6SM SCT040 SCT250
     FM270400 23005KT P6SM FEW050
     FM271600 21013KT P6SM SCT030 SCT090 BKN250
     FM271900 21014G20KT P6SM VCTS SCT040CB BKN250
      AMD LTD TO CLD VIS AND WIND 2704/2711=



000
FTUS42 KILM 262300
TAFCRE
TAF
KCRE 262320Z 2700/2724 18009KT P6SM SCT030 BKN040
     FM270400 23005KT P6SM FEW050
     FM271600 22013KT P6SM SCT030 SCT090 BKN250
     FM271900 21014G20KT P6SM VCTS SCT040CB BKN250=



000
FTUS42 KILM 262300
TAFLBT
TAF
KLBT 262320Z 2700/2724 VRB02KT P6SM FEW050 SCT250
      TEMPO 2708/2711 4SM BR SCT005
     FM271500 23010KT P6SM SCT030 SCT090 BKN250
     FM271900 23012KT P6SM VCTS SCT040CB BKN250=



000
FTUS42 KILM 261700
TAFLBT
TAF
KLBT 261722Z 2618/2718 22006KT P6SM SCT030
     FM270000 VRB02KT P6SM FEW050 SCT250
      TEMPO 2708/2711 4SM BR SCT005
     FM271500 23010KT P6SM SCT030 SCT090 BKN250=



000
FTUS42 KILM 261700
TAFILM
TAF
KILM 261722Z 2618/2718 15007KT P6SM VCSH SCT030 BKN040
     FM262000 17011KT P6SM SCT040 SCT250
     FM270100 22005KT P6SM FEW050
     FM271600 21013KT P6SM SCT030 SCT090 BKN250=



000
FTUS42 KILM 261700
TAFCRE
TAF
KCRE 261722Z 2618/2718 18009KT P6SM SCT030 BKN040
     FM270400 23005KT P6SM FEW050
     FM271600 22013KT P6SM SCT030 SCT090 BKN250=



000
FTUS42 KILM 261700
TAFFLO
TAF
KFLO 261722Z 2618/2718 23007KT P6SM SCT030
     FM270000 22003KT P6SM FEW050 SCT250
      TEMPO 2708/2711 4SM BR SCT005
     FM271500 23010KT P6SM SCT030 SCT090 BKN250=



000
FTUS42 KILM 261700
TAFMYR
TAF
KMYR 261722Z 2618/2718 24005KT P6SM SCT030 BKN040
     FM262000 21012KT P6SM SCT040 SCT250
     FM270400 23005KT P6SM FEW050
     FM271600 21013KT P6SM SCT030 SCT090 BKN250=



000
FTUS42 KILM 261300 AAA
TAFLBT
TAF AMD
KLBT 261337Z 2614/2712 VRB04KT P6SM OVC010
     FM261430 VRB04KT P6SM SCT015
     FM261800 24006KT P6SM BKN040
     FM270000 VRB02KT P6SM SCT250
      TEMPO 2708/2711 4SM BR SCT005=



000
FTUS42 KILM 261100 CCA
TAFFLO
TAF COR
KFLO 261158Z 2612/2712 VRB03KT 3SM BR BKN006
      TEMPO 2612/2613 2SM BR OVC002
     FM261330 VRB04KT P6SM SCT015 BKN250
     FM261800 24006KT P6SM BKN040
     FM270000 VRB02KT P6SM SCT250
      TEMPO 2708/2711 4SM BR SCT005=



000
FTUS42 KILM 261100 CCA
TAFLBT
TAF COR
KLBT 261158Z 2612/2712 VRB03KT 5SM BR BKN005
     FM261330 VRB04KT P6SM SCT015 BKN250
     FM261800 24006KT P6SM BKN040
     FM270000 VRB02KT P6SM SCT250
      TEMPO 2708/2711 4SM BR SCT005=



000
FTUS42 KILM 261100 CCA
TAFILM
TAF COR
KILM 261150Z 2612/2712 28005KT P6SM SCT015 SCT050 BKN110
      TEMPO 2614/2616 BKN025
     FM261700 23005KT P6SM VCSH BKN035
     FM262000 20009KT P6SM SCT040 SCT250
     FM270000 22005KT P6SM SCT050=



000
FTUS42 KILM 261100
TAFCRE
TAF
KCRE 261127Z 2612/2712 24005KT P6SM SCT025 SCT120 BKN250
      TEMPO 2614/2616 BKN025
     FM262000 20010KT P6SM SCT035 SCT250
     FM270400 23005KT P6SM SCT050=



000
FTUS42 KILM 261100
TAFMYR
TAF
KMYR 261127Z 2612/2712 23005KT P6SM SCT025 SCT120 BKN250
      TEMPO 2614/2616 BKN025
     FM262000 20012KT P6SM SCT035 SCT250
     FM270400 23005KT P6SM SCT050=



000
FTUS42 KILM 261100
TAFLBT
TAF
KLBT 261127Z 2612/2712 VRB03KT 3SM BR BKN006
     FM261330 VRB04KT P6SM SCT015 BKN250
     FM261800 24006KT P6SM BKN040
     FM270000 VRB02KT P6SM SCT250
      TEMPO 2708/2711 4SM BR SCT005=



000
FTUS42 KILM 261100
TAFFLO
TAF
KFLO 261127Z 2612/2712 VRB03KT 3SM BR BKN006
      TEMPO 2612/2613 1/2SM FG VV002
     FM261330 VRB04KT P6SM SCT015 BKN250
     FM261800 24006KT P6SM BKN040
     FM270000 VRB02KT P6SM SCT250
      TEMPO 2708/2711 4SM BR SCT005=



000
FTUS42 KILM 261100
TAFILM
TAF
KILM 261127Z 2612/2712 28005KT P6SM SCT008 SCT050 BKN110
      TEMPO 2614/2616 BKN025
     FM261700 23005KT P6SM VCSH BKN035
     FM262000 20009KT P6SM SCT040 SCT250
     FM270000 22005KT P6SM SCT050=



000
FTUS42 KILM 260900 AAB
TAFCRE
TAF AMD
KCRE 260946Z 2610/2706 27003KT 6SM BR SCT035 SCT110
      TEMPO 2610/2612 3SM BR
     FM261230 23006KT P6SM SCT030
     FM261800 19012KT P6SM VCTS SCT040CB BKN150
     FM270000 21010KT P6SM BKN200=



000
FTUS42 KILM 260900 CCB
TAFCRE
TAF COR
KCRE 260944Z 2607/2706 VRB02KT 5SM BR SCT015 BKN035
     FM261230 23006KT P6SM SCT030
     FM261800 19012KT P6SM VCTS SCT040CB BKN150
     FM270000 21010KT P6SM BKN200=



000
FTUS42 KILM 260800 AAA
TAFFLO
TAF AMD
KFLO 260831Z 2609/2706 00000KT 3SM BR BKN005
      TEMPO 2609/2612 1SM BR VV002
     FM261300 25004KT P6SM SCT030
     FM261800 24008KT P6SM VCTS SCT045CB BKN150
     FM270000 21010KT P6SM BKN250=



000
FTUS42 KILM 260800 AAB
TAFLBT
TAF AMD
KLBT 260830Z 2609/2706 00000KT 5SM BR BKN005 OVC015
      TEMPO 2609/2612 2SM BR VV002
     FM261300 26004KT P6SM SCT030
     FM261800 25008KT P6SM SCT045 BKN250
     FM270000 21010KT P6SM BKN250=



000
FTUS42 KILM 260700 AAA
TAFLBT
TAF AMD
KLBT 260718Z 2607/2706 00000KT 5SM BR BKN005 OVC015
      TEMPO 2607/2611 1/2SM FG VV003
     FM261300 26004KT P6SM SCT030
     FM261800 25008KT P6SM SCT045 BKN250
     FM270000 21010KT P6SM BKN250=



000
FTUS42 KILM 260700 AAA
TAFCRE
TAF AMD
KCRE 260717Z 2607/2706 VRB02KT 5SM BR SCT015 BKN035
      TEMPO 2607/2611 1SM BR BKN005
     FM261230 23006KT P6SM SCT030
     FM261800 19012KT P6SM VCTS SCT040CB BKN150
     FM270000 21010KT P6SM BKN200=



000
FTUS42 KILM 260500 CCA
TAFCRE
TAF COR
KCRE 260554Z 2606/2706 VRB02KT 2SM BR SCT015 BKN040
      TEMPO 2607/2611 1/2SM FG VV002
     FM261230 23006KT P6SM SCT030
     FM261800 19012KT P6SM VCTS SCT040CB BKN150
     FM270000 21010KT P6SM BKN200=



000
FTUS42 KILM 260500 CCA
TAFLBT
TAF COR
KLBT 260554Z 2606/2706 00000KT 5SM BR SCT005 BKN015
     FM260800 00000KT 3SM BR BKN005
      TEMPO 2608/2612 1/2SM FG VV002
     FM261300 26004KT P6SM SCT030
     FM261800 25008KT P6SM SCT045 BKN250
     FM270000 21010KT P6SM BKN250=



000
FTUS42 KILM 260500
TAFFLO
TAF
KFLO 260520Z 2606/2706 00000KT 6SM BR SCT015
     FM260700 00000KT 3SM BR SCT006
      TEMPO 2609/2612 1/2SM FG VV002
     FM261300 25004KT P6SM SCT030
     FM261800 24008KT P6SM VCTS SCT045CB BKN150
     FM270000 21010KT P6SM BKN250=



000
FTUS42 KILM 260500
TAFMYR
TAF
KMYR 260520Z 2606/2706 VRB02KT 6SM BR SCT015 BKN050
     FM260800 VRB01KT 3SM BR SCT010 SCT060
     FM261230 23006KT P6SM SCT030
     FM261800 19012KT P6SM VCTS SCT040CB BKN150
     FM270000 21010KT P6SM BKN200
      AMD LTD TO CLD VIS AND WIND TIL 261100=



000
FTUS42 KILM 260500
TAFLBT
TAF
KLBT 260520Z 2606/2706 00000KT 5SM BR SCT005 BKN015
     FM260800 00000KT 3SM BR SCT005
      TEMPO 2608/2612 1/2SM FG VV002
     FM261300 26004KT P6SM SCT030
     FM261800 25008KT P6SM SCT045 BKN250
     FM270000 21010KT P6SM BKN250=



000
FTUS42 KILM 260500
TAFILM
TAF
KILM 260520Z 2606/2706 00000KT P6SM BKN040 BKN100
     FM260800 00000KT 4SM BR FEW020 SCT060
     FM261400 25005KT P6SM SCT035
     FM261900 19008KT P6SM VCTS FEW045CB BKN250=



000
FTUS42 KILM 260500
TAFCRE
TAF
KCRE 260520Z 2606/2706 VRB02KT 5SM BR SCT015 BKN040
     FM260800 VRB01KT 1SM BR SCT010 SCT060
     FM261230 23006KT P6SM SCT030
     FM261800 19012KT P6SM VCTS SCT040CB BKN150
     FM270000 21010KT P6SM BKN200=



000
FTUS42 KILM 260500 AAA
TAFLBT
TAF AMD
KLBT 260502Z 2605/2624 00000KT 5SM BR BKN005 OVC015
     FM260800 00000KT 1SM BR BKN004
     FM261400 22004KT P6SM SCT020 SCT090
     FM261900 22008KT P6SM VCSH SCT035 BKN250=



000
FTUS42 KILM 252300
TAFMYR
TAF
KMYR 252320Z 2600/2624 25004KT P6SM SCT020 SCT100
     FM260900 VRB03KT 5SM BR FEW020 SCT060
     FM261400 27008KT P6SM SCT025
     FM261900 20012KT P6SM VCSH SCT035 BKN250
      AMD LTD TO CLD VIS AND WIND 2604/2611=



000
FTUS42 KILM 252300
TAFILM
TAF
KILM 252320Z 2600/2624 00000KT P6SM BKN040 BKN100
     FM260800 21003KT 4SM BR FEW020 SCT060
     FM261400 VRB04KT P6SM SCT025
     FM261900 19008KT P6SM VCSH SCT035 BKN250=



000
FTUS42 KILM 252300
TAFFLO
TAF
KFLO 252320Z 2600/2624 00000KT P6SM BKN020
     FM260700 00000KT 3SM BR SCT003 SCT060
      TEMPO 2609/2612 1SM BR VV003
     FM261400 23004KT 6SM BR SCT020 SCT090
     FM261900 22008KT P6SM VCSH SCT035 BKN250=



000
FTUS42 KILM 252300
TAFLBT
TAF
KLBT 252320Z 2600/2624 00000KT P6SM SCT040 BKN045
     FM260600 00000KT 3SM BR FEW003 SCT060
     FM261400 22004KT P6SM SCT020 SCT090
     FM261900 22008KT P6SM VCSH SCT035 BKN250=



000
FTUS42 KILM 252300
TAFCRE
TAF
KCRE 252320Z 2600/2624 22002KT P6SM SCT015 BKN040
     FM260800 25001KT 4SM BR FEW020 SCT060
     FM261400 22005KT P6SM SCT025
     FM261900 20012KT P6SM VCSH SCT035 BKN250=



000
FTUS42 KILM 251800 AAA
TAFMYR
TAF AMD
KMYR 251848Z 2519/2618 11006KT P6SM VCTS BKN015CB
      TEMPO 2519/2520 VRB15KT 1SM +TSRA BR SCT010 BKN025CB
     FM252000 09006KT 5SM SHRA BR VCTS BKN025CB BKN100
     FM260000 25004KT P6SM SCT020 SCT100
     FM260900 VRB03KT 5SM BR FEW020 SCT060
     FM261400 27008KT P6SM SCT025=



000
FTUS42 KILM 251700 CCA
TAFMYR
TAF COR
KMYR 251757Z 2518/2618 04006KT P6SM VCTS BKN020CB
      TEMPO 2518/2522 4SM SHRA BR SCT025 BKN100
     FM260000 25004KT P6SM SCT020 SCT100
     FM260900 VRB03KT 5SM BR FEW020 SCT060
     FM261400 27008KT P6SM SCT025=



000
FTUS42 KILM 251700
TAFLBT
TAF
KLBT 251722Z 2518/2618 02005KT P6SM SCT030 BKN100
      TEMPO 2518/2521 BKN030
     FM260000 00000KT P6SM SCT040 SCT090
     FM260600 00000KT 3SM BR FEW003 SCT060
     FM261400 22004KT P6SM SCT020 SCT090=



000
FTUS42 KILM 251700
TAFCRE
TAF
KCRE 251722Z 2518/2618 07005KT P6SM BKN025
      TEMPO 2519/2523 5SM SHRA BR SCT025 BKN100
     FM252300 22002KT P6SM SCT040 SCT100
     FM260800 25001KT 4SM BR FEW020 SCT060
     FM261400 22005KT P6SM SCT025=



000
FTUS42 KILM 251700
TAFFLO
TAF
KFLO 251722Z 2518/2618 11006KT P6SM OVC015
     FM251830 10005KT P6SM VCSH BKN025
      TEMPO 2520/2524 SCT025 BKN100
     FM260000 00000KT P6SM SCT020 SCT040
     FM260700 00000KT 3SM BR SCT003 SCT060
      TEMPO 2609/2612 1SM BR VV003
     FM261400 23004KT 6SM BR SCT020 SCT090=



000
FTUS42 KILM 251700
TAFILM
TAF
KILM 251722Z 2518/2618 09005KT P6SM BKN015
     FM251845 12006KT P6SM BKN025
      TEMPO 2520/2524 BKN035 BKN100
     FM260000 00000KT P6SM SCT020 BKN100
     FM260800 21003KT 4SM BR FEW020 SCT060
     FM261400 VRB04KT P6SM SCT025=



000
FTUS42 KILM 251700
TAFMYR
TAF
KMYR 251722Z 2518/2618 04006KT P6SM VCTS BKN025CB
      TEMPO 2518/2522 4SM SHRA BR SCT025 BKN100
     FM260000 25004KT P6SM SCT020 SCT100
     FM260900 VRB03KT 5SM BR FEW020 SCT060
     FM261400 27008KT P6SM SCT025=



    US Dept of Commerce
    National Oceanic and Atmospheric Administration
    National Weather Service
    1325 East West Highway
    Silver Spring, MD 20910
    Page Author: NWS Internet Services Team
Disclaimer
Information Quality
Credits
Glossary
Privacy Policy
Freedom of Information Act (FOIA)
About Us
Career Opportunities